Time;durP1;ratioP1;P1;durP2;ratioP2;P2;SDS_P1;SDS_P2;PMS_P1;PMS_P2;Temp;Humidity;BMP_temperature;BMP_pressure;BME280_temperature;BME280_humidity;BME280_pressure;Samples;Min_cycle;Max_cycle;Signal;HPM_P1;HPM_P2
2020/12/29 00:02:17;;;;;;;;;32.00;29.00;;;;;4.58;72.64;101711.31;4431047;32;12322;-77
2020/12/29 00:05:12;;;;;;;;;32.00;29.25;;;;;4.58;72.63;101707.75;4419727;32;12467;-76
2020/12/29 00:08:08;;;;;;;;;26.00;24.50;;;;;4.37;73.27;101706.78;4420080;32;12407;-76
2020/12/29 00:11:04;;;;;;;;;32.25;31.75;;;;;4.49;72.85;101699.19;4428352;32;12313;-76
2020/12/29 00:13:45;;;;;;;;;27.50;27.50;;;;;4.48;72.99;101694.81;4436412;32;12425;-76
2020/12/29 00:16:42;;;;;;;;;26.50;26.50;;;;;4.55;72.83;101706.38;4434997;32;12438;-75
2020/12/29 00:19:38;;;;;;;;;29.00;28.25;;;;;4.55;72.79;101708.28;4434851;32;12446;-76
2020/12/29 00:22:05;;;;;;;;;20.50;20.00;;;;;4.51;72.87;101697.00;4436582;32;12400;-76
2020/12/29 00:25:01;;;;;;;;;25.75;25.75;;;;;4.24;73.75;101691.66;4434506;32;12314;-76
2020/12/29 00:27:28;;;;;;;;;29.75;29.00;;;;;4.35;73.47;101687.06;4436309;32;12413;-76
2020/12/29 00:30:24;;;;;;;;;30.75;29.50;;;;;4.49;73.26;101681.94;4433621;32;12457;-77
2020/12/29 00:33:19;;;;;;;;;25.75;20.25;;;;;4.47;72.97;101679.47;4434763;32;12410;-77
2020/12/29 00:36:16;;;;;;;;;26.25;24.25;;;;;4.36;73.35;101672.28;4434670;32;12333;-77
2020/12/29 00:39:12;;;;;;;;;30.25;30.25;;;;;4.40;73.38;101671.50;4434352;32;12386;-77
2020/12/29 00:42:09;;;;;;;;;28.75;26.50;;;;;4.32;73.45;101666.53;4433754;32;13056;-77
2020/12/29 00:44:51;;;;;;;;;25.00;23.50;;;;;4.56;72.85;101677.87;4434361;32;12348;-77
2020/12/29 00:47:18;;;;;;;;;33.25;32.25;;;;;4.47;72.85;101685.78;4434565;32;12349;-78
2020/12/29 00:50:15;;;;;;;;;29.00;29.00;;;;;4.40;73.12;101695.31;4435267;32;12449;-76
2020/12/29 00:53:11;;;;;;;;;31.00;28.25;;;;;4.58;72.46;101691.31;4433812;32;13043;-75
2020/12/29 00:56:08;;;;;;;;;32.00;30.00;;;;;4.59;72.44;101696.50;4433809;32;13081;-76
2020/12/29 00:58:37;;;;;;;;;31.50;30.75;;;;;4.56;72.48;101710.75;4434873;32;13159;-76
2020/12/29 01:01:32;;;;;;;;;25.00;24.50;;;;;4.61;72.26;101716.28;4434237;32;12341;-76
2020/12/29 01:04:28;;;;;;;;;35.75;33.00;;;;;4.46;72.60;101711.53;4432897;32;13047;-77
2020/12/29 01:06:55;;;;;;;;;24.50;24.50;;;;;4.56;72.43;101726.38;4433836;32;12411;-77
2020/12/29 01:09:23;;;;;;;;;27.75;27.25;;;;;4.55;72.38;101728.28;4435401;32;12366;-77
2020/12/29 01:12:18;;;;;;;;;34.25;31.75;;;;;4.46;72.56;101730.69;4432960;32;12447;-76
2020/12/29 01:15:14;;;;;;;;;37.75;36.25;;;;;4.59;72.37;101732.13;4433953;32;12413;-76
2020/12/29 01:18:12;;;;;;;;;29.00;28.00;;;;;4.47;72.34;101732.34;4434078;32;12466;-77
2020/12/29 01:21:10;;;;;;;;;31.50;31.50;;;;;4.63;72.17;101719.56;4432976;32;12377;-77
2020/12/29 01:24:05;;;;;;;;;50.67;45.33;;;;;4.57;72.09;101709.66;4433398;32;13045;-75
2020/12/29 01:26:34;;;;;;;;;39.25;36.00;;;;;4.63;72.00;101705.03;4434476;32;12444;-75
2020/12/29 01:29:29;;;;;;;;;40.50;39.50;;;;;4.62;72.05;101700.66;4434560;32;12383;-75
2020/12/29 01:32:24;;;;;;;;;47.25;44.50;;;;;4.76;71.69;101704.56;4433485;32;12998;-76
2020/12/29 01:34:55;;;;;;;;;40.50;37.75;;;;;4.74;71.64;101691.09;4435590;32;13046;-76
2020/12/29 01:37:24;;;;;;;;;28.25;27.50;;;;;4.71;71.61;101686.16;4434600;32;12405;-76
2020/12/29 01:40:20;;;;;;;;;34.25;33.25;;;;;4.72;71.53;101670.53;4432834;32;12395;-76
2020/12/29 01:43:15;;;;;;;;;31.75;31.75;;;;;4.72;71.58;101654.94;4434968;32;12328;-76
2020/12/29 01:45:43;;;;;;;;;31.25;30.25;;;;;4.54;72.09;101655.41;4434215;32;13044;-76
2020/12/29 01:48:40;;;;;;;;;23.50;23.50;;;;;4.65;72.03;101662.56;4433565;32;13072;-75
2020/12/29 01:51:36;;;;;;;;;29.00;27.00;;;;;4.49;72.14;101652.62;4432558;32;12320;-75
2020/12/29 01:54:32;;;;;;;;;27.00;27.00;;;;;4.65;71.93;101670.78;4419509;32;13156;-76
2020/12/29 01:57:27;;;;;;;;;39.50;39.00;;;;;4.67;71.73;101678.72;4418252;32;12486;-76
2020/12/29 02:00:23;;;;;;;;;38.25;37.25;;;;;4.67;71.84;101686.94;4429770;32;12321;-76
2020/12/29 02:03:20;;;;;;;;;44.50;41.00;;;;;4.63;71.67;101670.22;4433477;32;12372;-76
2020/12/29 02:06:16;;;;;;;;;32.75;30.75;;;;;4.76;71.47;101643.44;4432551;32;12408;-77
2020/12/29 02:08:44;;;;;;;;;29.75;29.75;;;;;4.72;71.54;101641.22;4433665;32;12347;-76
2020/12/29 02:11:39;;;;;;;;;30.50;29.75;;;;;4.44;72.34;101628.75;4433397;32;12313;-76
2020/12/29 02:14:35;;;;;;;;;33.25;32.75;;;;;4.62;71.83;101623.94;4433148;32;12360;-77
2020/12/29 02:17:31;;;;;;;;;31.50;29.50;;;;;4.63;71.90;101612.69;4433247;32;12970;-77
2020/12/29 02:20:26;;;;;;;;;33.50;25.50;;;;;4.62;72.05;101607.50;4422495;32;12360;-76
2020/12/29 02:23:22;;;;;;;;;32.25;32.25;;;;;4.55;72.10;101620.63;4402847;32;12339;-76
2020/12/29 02:25:49;;;;;;;;;47.67;44.33;;;;;4.72;71.93;101623.97;4404235;32;12344;-76
2020/12/29 02:28:44;;;;;;;;;41.75;39.25;;;;;4.65;72.08;101615.97;4402931;32;12373;-76
2020/12/29 02:31:34;;;;;;;;;34.50;34.50;;;;;4.76;71.56;101622.34;4403365;32;12468;-76
2020/12/29 02:34:29;;;;;;;;;25.50;25.50;;;;;4.59;72.25;101629.94;4402198;32;12329;-77
2020/12/29 02:37:25;;;;;;;;;28.00;28.00;;;;;4.73;71.82;101636.56;4403542;32;12386;-77
2020/12/29 02:40:20;;;;;;;;;25.50;23.25;;;;;4.63;71.96;101636.53;4402734;32;12392;-77
2020/12/29 02:42:52;;;;;;;;;30.50;28.25;;;;;4.72;71.89;101632.19;4411819;32;12343;-76
2020/12/29 02:45:49;;;;;;;;;33.00;33.00;;;;;4.74;71.56;101644.50;4408482;32;12326;-77
2020/12/29 02:48:31;;;;;;;;;24.25;24.25;;;;;4.62;72.28;101632.97;4404603;32;12479;-76
2020/12/29 02:51:26;;;;;;;;;27.50;27.50;;;;;4.64;72.44;101657.34;4420092;32;12296;-76
2020/12/29 02:54:14;;;;;;;;;29.50;29.50;;;;;4.65;72.45;101650.78;4417676;32;12407;-76
2020/12/29 02:57:11;;;;;;;;;28.50;26.75;;;;;4.65;72.55;101632.41;4417819;32;13128;-76
2020/12/29 03:00:06;;;;;;;;;20.00;20.00;;;;;4.76;72.23;101646.19;4417141;32;12361;-77
2020/12/29 03:03:02;;;;;;;;;25.25;22.00;;;;;4.58;72.99;101637.31;4427717;32;12997;-76
2020/12/29 03:05:58;;;;;;;;;23.75;23.75;;;;;4.67;72.71;101649.41;4433296;32;12353;-77
2020/12/29 03:08:47;;;;;;;;;22.00;22.00;;;;;4.78;72.46;101638.50;4434747;32;12329;-76
2020/12/29 03:11:29;;;;;;;;;20.00;20.00;;;;;4.82;72.33;101631.38;4421083;32;12280;-76
2020/12/29 03:14:25;;;;;;;;;21.00;19.50;;;;;4.90;72.02;101628.12;4434601;32;12459;-77
2020/12/29 03:17:21;;;;;;;;;23.25;22.75;;;;;4.85;72.13;101620.72;4426793;32;12299;-77
2020/12/29 03:20:16;;;;;;;;;33.25;33.00;;;;;4.82;72.38;101631.38;4419835;32;12316;-77
2020/12/29 03:23:12;;;;;;;;;31.25;26.75;;;;;4.80;72.27;101622.59;4420210;32;12378;-77
2020/12/29 03:26:08;;;;;;;;;30.50;30.50;;;;;4.95;71.96;101608.94;4419833;32;12318;-76
2020/12/29 03:29:03;;;;;;;;;32.25;32.25;;;;;4.79;72.32;101604.53;4421019;32;12375;-76
2020/12/29 03:31:30;;;;;;;;;33.25;33.25;;;;;4.80;72.38;101612.47;4422477;32;12316;-77
2020/12/29 03:34:27;;;;;;;;;31.25;29.00;;;;;4.91;72.25;101616.09;4421455;32;12373;-76
2020/12/29 03:37:23;;;;;;;;;27.75;27.75;;;;;4.91;72.31;101607.84;4404483;32;12383;-77
2020/12/29 03:40:19;;;;;;;;;35.50;34.50;;;;;4.68;72.99;101604.50;4394704;32;12360;-77
2020/12/29 03:43:15;;;;;;;;;28.50;28.25;;;;;4.85;72.55;101611.66;4404248;32;12313;-76
2020/12/29 03:45:44;;;;;;;;;29.00;26.25;;;;;4.87;72.71;101604.00;4415092;32;12442;-77
2020/12/29 03:48:40;;;;;;;;;27.00;26.00;;;;;4.89;72.57;101613.59;4434946;32;12316;-77
2020/12/29 03:51:35;;;;;;;;;28.50;27.25;;;;;4.94;72.58;101618.25;4433140;32;12297;-77
2020/12/29 03:54:07;;;;;;;;;25.00;25.00;;;;;4.77;72.96;101629.47;4435656;32;12366;-77
2020/12/29 03:56:49;;;;;;;;;18.25;18.25;;;;;4.94;72.46;101630.06;4435647;32;12303;-76
2020/12/29 03:59:25;;;;;;;;;17.00;17.00;;;;;4.87;72.80;101621.25;4435292;32;12346;-77
2020/12/29 04:02:20;;;;;;;;;16.50;15.75;;;;;4.99;72.60;101632.00;4424332;32;12624;-78
2020/12/29 04:04:49;;;;;;;;;20.25;20.00;;;;;5.00;72.49;101626.25;4417990;32;12309;-77
2020/12/29 04:07:45;;;;;;;;;22.00;21.25;;;;;4.84;73.21;101630.03;4420145;32;13111;-76
2020/12/29 04:10:12;;;;;;;;;18.00;18.00;;;;;4.96;72.82;101624.28;4426495;32;12299;-77
2020/12/29 04:13:08;;;;;;;;;24.50;21.75;;;;;4.93;72.87;101622.09;4434923;32;12326;-76
2020/12/29 04:15:37;;;;;;;;;20.50;19.50;;;;;4.97;72.78;101620.47;4436853;32;12282;-76
2020/12/29 04:18:04;;;;;;;;;35.50;35.50;;;;;4.91;72.88;101616.09;4435515;32;12363;-77
2020/12/29 04:20:54;;;;;;;;;30.25;30.00;;;;;4.91;73.09;101613.34;4436857;32;12354;-76
2020/12/29 04:23:35;;;;;;;;;20.50;20.50;;;;;5.02;72.78;101624.03;4436291;32;12309;-77
2020/12/29 04:26:34;;;;;;;;;23.50;22.50;;;;;5.03;72.54;101642.12;4419908;32;13076;-77
2020/12/29 04:29:32;;;;;;;;;26.25;26.25;;;;;4.83;73.37;101620.16;4418278;32;12378;-76
2020/12/29 04:32:01;;;;;;;;;41.25;39.50;;;;;4.87;73.31;101615.78;4418537;32;12327;-76
2020/12/29 04:34:57;;;;;;;;;20.00;20.00;;;;;4.98;72.94;101622.94;4425196;32;12388;-76
2020/12/29 04:37:52;;;;;;;;;19.00;19.00;;;;;4.98;73.10;101622.09;4434489;32;12508;-75
2020/12/29 04:40:48;;;;;;;;;30.75;25.50;;;;;4.97;73.23;101625.94;4433740;32;13027;-75
2020/12/29 04:43:45;;;;;;;;;23.75;19.50;;;;;4.94;73.28;101626.50;4434977;32;12373;-76
2020/12/29 04:46:35;;;;;;;;;19.00;18.75;;;;;4.98;73.47;101633.91;4434330;32;12341;-76
2020/12/29 04:49:32;;;;;;;;;26.50;24.25;;;;;5.07;72.91;101636.13;4434586;32;12433;-76
2020/12/29 04:52:30;;;;;;;;;23.75;23.75;;;;;5.16;72.85;101640.81;4419166;32;12347;-77
2020/12/29 04:55:30;;;;;;;;;17.75;17.75;;;;;4.98;73.43;101641.28;4419750;32;12328;-77
2020/12/29 04:58:28;;;;;;;;;16.50;16.50;;;;;5.15;72.81;101652.06;4417651;32;12993;-77
2020/12/29 05:01:26;;;;;;;;;19.00;19.00;;;;;5.05;73.03;101643.78;4418266;32;12986;-77
2020/12/29 05:04:23;;;;;;;;;25.75;23.25;;;;;5.09;73.27;101637.50;4417623;32;12321;-77
2020/12/29 05:06:51;;;;;;;;;30.25;30.25;;;;;5.06;73.21;101637.19;4427136;32;12364;-76
2020/12/29 05:09:39;;;;;;;;;31.00;30.00;;;;;5.05;73.01;101624.59;4435467;32;13062;-77
2020/12/29 05:12:20;;;;;;;;;23.25;23.25;;;;;4.94;73.41;101612.78;4433698;32;12399;-77
2020/12/29 05:15:19;;;;;;;;;30.75;30.75;;;;;5.03;73.42;101617.47;4433909;32;12325;-76
2020/12/29 05:18:14;;;;;;;;;27.50;25.25;;;;;4.94;73.64;101612.78;4433785;32;12376;-76
2020/12/29 05:21:10;;;;;;;;;52.00;42.25;;;;;5.15;73.29;101616.41;4431009;32;12403;-77
2020/12/29 05:24:18;;;;;;;;;34.50;34.50;;;;;5.08;73.40;101599.37;4432362;32;12504;-77
2020/12/29 05:27:15;;;;;;;;;36.00;34.25;;;;;5.07;73.30;101592.25;4430777;32;12444;-78
2020/12/29 05:30:11;;;;;;;;;27.00;26.50;;;;;5.05;73.53;101602.66;4422792;32;12312;-78
2020/12/29 05:32:57;;;;;;;;;12.50;12.50;;;;;5.02;73.77;101612.25;4434193;32;12349;-78
2020/12/29 05:35:54;;;;;;;;;36.75;32.00;;;;;4.98;73.95;101620.22;4416589;32;12332;-78
2020/12/29 05:38:55;;;;;;;;;42.00;41.50;;;;;5.12;73.47;101641.59;4417716;32;12407;-76
2020/12/29 05:41:54;;;;;;;;;42.75;37.75;;;;;5.14;73.37;101628.47;4417829;32;12348;-76
2020/12/29 05:44:52;;;;;;;;;31.50;28.00;;;;;5.06;73.88;101634.44;4421007;32;12479;-76
2020/12/29 05:47:34;;;;;;;;;31.25;31.25;;;;;5.14;73.61;101631.22;4434086;32;12337;-76
2020/12/29 05:50:31;;;;;;;;;31.00;29.50;;;;;5.09;73.79;101642.16;4434164;32;12348;-76
2020/12/29 05:53:13;;;;;;;;;36.50;35.50;;;;;5.02;74.19;101643.22;4426422;32;12325;-76
2020/12/29 05:56:08;;;;;;;;;21.75;21.75;;;;;5.04;73.75;101656.66;4418146;32;12445;-75
2020/12/29 05:59:10;;;;;;;;;29.00;26.00;;;;;4.74;75.04;101644.50;4418671;32;12974;-76
2020/12/29 06:02:08;;;;;;;;;30.00;27.75;;;;;5.00;74.21;101650.91;4428446;32;12360;-78
2020/12/29 06:05:06;;;;;;;;;35.00;32.75;;;;;4.98;74.43;101638.56;4428937;32;12445;-76
2020/12/29 06:08:03;;;;;;;;;25.00;22.25;;;;;5.16;73.78;101643.53;4426656;32;12372;-76
2020/12/29 06:11:04;;;;;;;;;32.25;29.25;;;;;5.09;73.93;101647.66;4417510;32;12383;-77
2020/12/29 06:13:46;;;;;;;;;60.67;50.33;;;;;5.12;73.91;101647.91;4419308;32;13008;-76
2020/12/29 06:16:43;;;;;;;;;30.50;30.50;;;;;4.90;74.40;101639.91;4418298;32;9103;-77
2020/12/29 06:19:27;;;;;;;;;31.50;31.50;;;;;5.11;74.06;101649.00;4417952;32;12331;-77
2020/12/29 06:22:12;;;;;;;;;21.00;21.00;;;;;4.98;74.40;101642.16;4416892;32;12331;-77
2020/12/29 06:24:55;;;;;;;;;28.25;28.25;;;;;5.10;74.24;101647.37;4422755;32;12293;-77
2020/12/29 06:27:53;;;;;;;;;74.33;59.33;;;;;5.22;73.92;101647.13;4432513;32;12314;-77
2020/12/29 06:30:51;;;;;;;;;34.00;31.00;;;;;5.19;73.68;101651.22;4431219;32;8938;-77
2020/12/29 06:33:47;;;;;;;;;30.00;30.00;;;;;5.27;73.42;101642.44;4427855;32;12385;-76
2020/12/29 06:36:19;;;;;;;;;29.75;27.00;;;;;5.13;73.95;101622.12;4432160;32;12367;-76
2020/12/29 06:39:04;;;;;;;;;32.75;31.50;;;;;5.17;73.90;101641.62;4433534;32;12334;-76
2020/12/29 06:42:00;;;;;;;;;24.75;23.50;;;;;5.14;73.66;101636.69;4433774;32;13143;-77
2020/12/29 06:44:57;;;;;;;;;26.50;26.50;;;;;4.96;74.57;101638.00;4431593;32;12311;-76
2020/12/29 06:47:27;;;;;;;;;25.50;24.25;;;;;5.01;74.75;101657.22;4434956;32;12353;-77
2020/12/29 06:50:20;;;;;;;;;26.75;26.00;;;;;5.03;74.62;101657.75;4436506;32;12305;-77
2020/12/29 06:53:19;;;;;;;;;18.50;18.25;;;;;5.13;74.44;101652.28;4435477;32;12331;-76
2020/12/29 06:56:18;;;;;;;;;20.75;20.00;;;;;5.17;73.91;101655.34;4435290;32;12317;-77
2020/12/29 06:59:16;;;;;;;;;23.00;23.00;;;;;5.19;74.14;101670.41;4429050;32;12373;-77
2020/12/29 07:02:20;;;;;;;;;21.75;20.00;;;;;5.28;73.92;101687.97;4433418;32;12355;-77
2020/12/29 07:05:11;;;;;;;;;27.25;26.75;;;;;5.32;73.86;101673.75;4404937;32;12327;-76
2020/12/29 07:08:07;;;;;;;;;26.75;26.50;;;;;5.39;73.33;101663.34;4425445;32;12376;-76
2020/12/29 07:11:19;;;;;;;;;24.50;22.50;;;;;5.39;73.44;101657.84;4431832;32;12369;-76
2020/12/29 07:13:55;;;;;;;;;22.75;22.25;;;;;5.30;73.60;101669.34;4433642;32;12401;-77
2020/12/29 07:16:54;;;;;;;;;25.50;24.50;;;;;5.31;73.87;101670.19;4422518;32;12403;-77
2020/12/29 07:19:23;;;;;;;;;26.75;26.75;;;;;5.39;73.71;101663.34;4433089;32;12398;-76
2020/12/29 07:22:19;;;;;;;;;35.75;30.00;;;;;5.34;73.71;101655.91;4431872;32;12437;-76
2020/12/29 07:25:15;;;;;;;;;33.00;28.25;;;;;5.40;73.38;101676.78;4422989;32;12388;-76
2020/12/29 07:28:02;;;;;;;;;38.00;38.00;;;;;5.44;73.39;101663.31;4431742;32;12331;-76
2020/12/29 07:30:58;;;;;;;;;42.00;39.25;;;;;5.45;73.55;101665.81;4430959;32;12339;-77
2020/12/29 07:33:26;;;;;;;;;48.50;42.75;;;;;5.39;73.78;101680.63;4426452;32;12415;-76
2020/12/29 07:36:22;;;;;;;;;31.25;30.25;;;;;5.40;73.85;101682.25;4425285;32;12309;-76
2020/12/29 07:39:38;;;;;;;;;36.00;35.00;;;;;5.50;73.34;101679.53;4427364;32;12497;-76
2020/12/29 07:42:33;;;;;;;;;40.25;37.00;;;;;5.61;73.28;101682.28;4432304;32;12324;-77
2020/12/29 07:45:29;;;;;;;;;30.50;30.25;;;;;5.65;74.32;101688.88;4430824;32;12304;-75
2020/12/29 07:48:25;;;;;;;;;28.25;28.25;;;;;5.72;73.90;101692.16;4431934;32;13061;-79
2020/12/29 07:51:20;;;;;;;;;28.75;28.50;;;;;5.41;75.02;101683.91;4428708;32;12311;-78
2020/12/29 07:54:20;;;;;;;;;35.75;34.75;;;;;5.66;74.00;101685.84;4426928;32;12389;-78
2020/12/29 07:57:15;;;;;;;;;37.00;37.00;;;;;5.71;74.18;101679.53;4433935;32;13007;-79
2020/12/29 08:00:16;;;;;;;;;29.50;29.50;;;;;5.68;73.86;101680.91;4433201;32;12372;-79
2020/12/29 08:03:13;;;;;;;;;36.75;34.75;;;;;5.51;74.27;101674.84;4426006;32;12307;-79
2020/12/29 08:06:14;;;;;;;;;49.25;44.75;;;;;5.56;74.13;101672.12;4424934;32;12535;-79
2020/12/29 08:09:09;;;;;;;;;40.00;40.00;;;;;5.55;74.40;101665.00;4432342;32;12395;-79
2020/12/29 08:12:07;;;;;;;;;37.50;37.50;;;;;5.77;73.61;101671.03;4431274;32;12380;-78
2020/12/29 08:14:41;;;;;;;;;43.25;41.25;;;;;5.71;73.66;101672.12;4427707;32;13014;-78
2020/12/29 08:17:11;;;;;;;;;41.50;39.50;;;;;5.66;74.20;101666.63;4425903;32;12566;-79
2020/12/29 08:19:38;;;;;;;;;32.75;30.25;;;;;5.72;73.83;101668.28;4434461;32;13021;-77
2020/12/29 08:22:34;;;;;;;;;27.25;27.25;;;;;5.78;73.61;101682.84;4424935;32;12310;-78
2020/12/29 08:25:31;;;;;;;;;29.25;29.25;;;;;5.82;74.40;101670.19;4432732;32;12952;-79
2020/12/29 08:28:03;;;;;;;;;33.75;33.75;;;;;5.83;75.00;101671.88;4435548;32;12311;-79
2020/12/29 08:31:04;;;;;;;;;16.75;16.75;;;;;5.75;73.95;101673.25;4433038;32;12360;-78
2020/12/29 08:33:36;;;;;;;;;28.25;26.50;;;;;5.63;74.67;101669.94;4425512;32;12920;-78
2020/12/29 08:36:22;;;;;;;;;24.50;23.50;;;;;5.82;73.83;101668.28;4429029;32;12319;-79
2020/12/29 08:39:40;;;;;;;;;24.75;24.50;;;;;5.93;74.64;101671.06;4432882;32;12319;-79
2020/12/29 08:42:23;;;;;;;;;39.00;33.25;;;;;5.94;75.20;101667.22;4433571;32;12326;-77
2020/12/29 08:45:28;;;;;;;;;28.75;28.75;;;;;5.93;75.77;101669.12;4426965;32;12386;-79
2020/12/29 08:48:16;;;;;;;;;37.00;34.50;;;;;6.13;74.70;101662.78;4432764;32;12316;-73
2020/12/29 08:50:44;;;;;;;;;27.50;27.50;;;;;6.20;74.14;101666.06;4432553;32;12350;-73
2020/12/29 08:53:40;;;;;;;;;36.00;36.00;;;;;6.32;72.76;101679.50;4431145;32;13154;-76
2020/12/29 08:56:37;;;;;;;;;43.75;40.00;;;;;6.32;73.45;101661.09;4432722;32;12435;-77
2020/12/29 08:59:40;;;;;;;;;75.75;58.50;;;;;6.24;73.37;101641.62;4432232;32;12375;-75
2020/12/29 09:02:35;;;;;;;;;43.50;39.00;;;;;6.49;72.38;101638.78;4428649;32;12516;-75
2020/12/29 09:05:36;;;;;;;;;36.00;34.75;;;;;6.47;72.52;101634.69;4429373;32;12438;-75
2020/12/29 09:08:33;;;;;;;;;52.25;45.50;;;;;6.60;72.16;101632.16;4425157;32;12453;-75
2020/12/29 09:11:17;;;;;;;;;54.75;46.00;;;;;6.63;72.21;101639.00;4431973;32;12413;-76
2020/12/29 09:14:04;;;;;;;;;30.75;30.75;;;;;6.63;72.03;101639.00;4426525;32;12346;-74
2020/12/29 09:17:00;;;;;;;;;39.50;39.00;;;;;6.77;72.94;101648.31;4430201;32;12374;-74
2020/12/29 09:19:27;;;;;;;;;33.25;32.50;;;;;6.83;71.10;101647.19;4430999;32;12312;-74
2020/12/29 09:22:23;;;;;;;;;26.75;26.75;;;;;6.69;71.16;101657.97;4430752;32;12309;-74
2020/12/29 09:25:31;;;;;;;;;44.75;42.50;;;;;6.73;71.74;101644.47;4428793;32;12359;-75
2020/12/29 09:28:30;;;;;;;;;40.25;40.00;;;;;6.68;71.83;101642.56;4431307;32;12399;-75
2020/12/29 09:31:13;;;;;;;;;54.25;45.75;;;;;6.74;71.70;101631.53;4432203;32;12385;-75
2020/12/29 09:33:58;;;;;;;;;67.25;56.75;;;;;6.73;71.56;101624.41;4432373;32;12332;-74
2020/12/29 09:36:31;;;;;;;;;33.50;33.50;;;;;6.85;71.37;101633.97;4430476;32;12366;-75
2020/12/29 09:39:27;;;;;;;;;31.75;31.75;;;;;6.89;70.81;101629.53;4428762;32;12373;-75
2020/12/29 09:42:23;;;;;;;;;33.50;32.00;;;;;6.93;71.16;101625.12;4422916;32;12361;-74
2020/12/29 09:45:21;;;;;;;;;35.25;35.25;;;;;6.88;71.29;101621.56;4431365;32;12464;-74
2020/12/29 09:47:50;;;;;;;;;34.00;32.25;;;;;6.74;71.91;101635.09;4431918;32;12322;-75
2020/12/29 09:50:19;;;;;;;;;26.50;26.25;;;;;6.85;71.70;101633.16;4426535;32;12384;-75
2020/12/29 09:53:15;;;;;;;;;21.50;21.50;;;;;6.75;72.23;101636.78;4431174;32;12407;-75
2020/12/29 09:56:18;;;;;;;;;37.00;36.25;;;;;6.62;72.66;101632.69;4431703;32;13230;-75
2020/12/29 09:59:16;;;;;;;;;45.75;38.75;;;;;6.68;72.79;101623.34;4431314;32;13031;-75
2020/12/29 10:02:11;;;;;;;;;22.50;21.00;;;;;6.76;72.70;101626.59;4433095;32;12402;-75
2020/12/29 10:05:07;;;;;;;;;27.25;27.00;;;;;6.73;72.58;101616.97;4429971;32;12298;-75
2020/12/29 10:08:02;;;;;;;;;24.75;22.75;;;;;6.77;72.77;101612.56;4427000;32;12347;-74
2020/12/29 10:10:58;;;;;;;;;21.75;21.75;;;;;6.77;72.88;101611.75;4422421;32;12483;-75
2020/12/29 10:13:26;;;;;;;;;21.50;21.50;;;;;6.87;72.67;101612.50;4419915;32;12322;-75
2020/12/29 10:15:53;;;;;;;;;23.50;23.50;;;;;6.87;72.73;101611.69;4429787;32;12381;-75
2020/12/29 10:18:31;;;;;;;;;19.50;19.25;;;;;6.88;72.93;101611.38;4423844;32;12328;-75
2020/12/29 10:21:14;;;;;;;;;21.75;21.25;;;;;6.93;72.61;101618.81;4429167;32;12344;-75
2020/12/29 10:23:42;;;;;;;;;26.50;25.25;;;;;6.97;72.35;101620.69;4433639;32;12304;-74
2020/12/29 10:26:38;;;;;;;;;20.75;20.75;;;;;6.98;72.47;101627.03;4435556;32;12333;-75
2020/12/29 10:29:20;;;;;;;;;31.25;29.25;;;;;7.00;72.55;101621.25;4434746;32;12471;-75
2020/12/29 10:31:48;;;;;;;;;25.50;24.25;;;;;6.97;72.61;101631.69;4433244;32;12308;-76
2020/12/29 10:34:18;;;;;;;;;22.50;22.50;;;;;6.75;73.23;101639.53;4427091;32;12346;-75
2020/12/29 10:36:46;;;;;;;;;23.25;23.25;;;;;7.08;72.85;101628.91;4432745;32;12390;-75
2020/12/29 10:39:27;;;;;;;;;26.25;26.25;;;;;7.01;72.94;101625.63;4428090;32;12392;-75
2020/12/29 10:42:23;;;;;;;;;20.25;20.25;;;;;7.25;72.25;101634.81;4422613;32;12581;-74
2020/12/29 10:45:19;;;;;;;;;23.75;23.75;;;;;7.31;71.97;101633.69;4433353;32;12391;-75
2020/12/29 10:48:14;;;;;;;;;37.00;30.25;;;;;7.32;72.13;101618.81;4430851;32;12357;-75
2020/12/29 10:51:19;;;;;;;;;29.75;26.50;;;;;7.31;72.45;101627.38;4430372;32;12438;-74
2020/12/29 10:54:03;;;;;;;;;31.25;29.75;;;;;7.21;72.72;101620.00;4435284;32;12338;-74
2020/12/29 10:56:31;;;;;;;;;27.50;26.25;;;;;7.35;72.25;101623.75;4427242;32;12473;-75
2020/12/29 10:58:58;;;;;;;;;22.75;21.75;;;;;7.39;72.45;101626.75;4433867;32;12313;-74
2020/12/29 11:01:57;;;;;;;;;20.25;20.25;;;;;7.43;72.27;101623.13;4423345;32;12322;-75
2020/12/29 11:04:53;;;;;;;;;21.25;18.75;;;;;7.34;72.73;101621.28;4428556;32;12435;-75
2020/12/29 11:07:20;;;;;;;;;30.75;29.50;;;;;7.58;72.04;101637.88;4437680;32;12392;-75
2020/12/29 11:10:16;;;;;;;;;29.50;28.25;;;;;7.46;72.56;101628.06;4430314;32;12508;-75
2020/12/29 11:13:12;;;;;;;;;28.25;23.75;;;;;7.49;72.20;101627.50;4432551;32;12371;-75
2020/12/29 11:16:16;;;;;;;;;29.25;28.25;;;;;7.64;71.90;101626.53;4436621;32;12320;-74
2020/12/29 11:19:12;;;;;;;;;23.00;22.00;;;;;7.56;72.15;101623.59;4435229;32;12386;-74
2020/12/29 11:22:07;;;;;;;;;26.00;26.00;;;;;7.46;72.26;101622.56;4432783;32;12315;-75
2020/12/29 11:24:43;;;;;;;;;22.25;22.25;;;;;7.65;71.83;101621.84;4432289;32;12331;-77
2020/12/29 11:27:19;;;;;;;;;17.75;17.00;;;;;7.62;72.15;101619.69;4427046;32;12325;-76
2020/12/29 11:30:11;;;;;;;;;22.75;22.75;;;;;7.67;72.12;101614.16;4431916;32;12316;-77
2020/12/29 11:32:56;;;;;;;;;18.25;18.25;;;;;7.67;71.56;101614.16;4429895;32;12348;-76
2020/12/29 11:35:26;;;;;;;;;28.00;27.50;;;;;7.66;72.03;101610.53;4430497;32;12333;-77
2020/12/29 11:38:22;;;;;;;;;30.50;27.25;;;;;7.61;72.33;101610.63;4428221;32;12342;-77
2020/12/29 11:41:19;;;;;;;;;22.50;22.50;;;;;7.65;72.05;101608.91;4431254;32;12367;-76
2020/12/29 11:44:15;;;;;;;;;25.50;25.50;;;;;7.72;71.95;101592.87;4426560;32;12465;-78
2020/12/29 11:46:43;;;;;;;;;28.50;28.50;;;;;7.68;72.33;101600.09;4427728;32;13166;-77
2020/12/29 11:49:16;;;;;;;;;31.75;28.00;;;;;7.75;72.18;101600.56;4429483;32;12380;-75
2020/12/29 11:52:15;;;;;;;;;27.50;26.00;;;;;7.72;72.25;101601.12;4428045;32;12383;-75
2020/12/29 11:54:45;;;;;;;;;19.25;19.25;;;;;7.65;72.34;101592.38;4430958;32;13128;-76
2020/12/29 11:57:30;;;;;;;;;28.00;27.00;;;;;7.77;71.99;101589.25;4430986;32;12354;-76
2020/12/29 11:59:59;;;;;;;;;40.00;35.25;;;;;7.71;72.45;101595.94;4433250;32;12398;-76
2020/12/29 12:02:55;;;;;;;;;34.75;33.00;;;;;7.81;72.04;101587.56;4432976;32;12376;-76
2020/12/29 12:05:58;;;;;;;;;24.00;24.00;;;;;7.80;72.30;101585.91;4431374;32;12378;-76
2020/12/29 12:08:58;;;;;;;;;30.75;30.00;;;;;7.79;72.06;101585.09;4426455;32;12354;-76
2020/12/29 12:11:53;;;;;;;;;35.00;35.00;;;;;7.86;72.17;101583.94;4433556;32;12336;-75
2020/12/29 12:14:56;;;;;;;;;27.25;26.50;;;;;7.80;72.13;101585.91;4431535;32;12482;-75
2020/12/29 12:17:52;;;;;;;;;21.00;21.00;;;;;7.81;72.16;101579.28;4427984;32;12434;-74
2020/12/29 12:20:22;;;;;;;;;25.50;25.50;;;;;7.78;72.29;101588.16;4432837;32;12325;-75
2020/12/29 12:23:04;;;;;;;;;33.25;33.25;;;;;7.67;72.83;101587.44;4425011;32;12393;-76
2020/12/29 12:25:46;;;;;;;;;41.00;39.50;;;;;7.76;72.68;101573.84;4433148;32;12457;-74
2020/12/29 12:28:13;;;;;;;;;31.00;31.00;;;;;7.80;72.39;101578.47;4433807;32;12320;-75
2020/12/29 12:31:12;;;;;;;;;32.50;32.50;;;;;7.84;72.44;101578.72;4432095;32;12337;-75
2020/12/29 12:33:45;;;;;;;;;22.50;22.50;;;;;7.86;72.54;101593.03;4431393;32;12381;-76
2020/12/29 12:36:14;;;;;;;;;38.75;36.75;;;;;7.63;73.23;101602.06;4433463;32;12306;-75
2020/12/29 12:39:09;;;;;;;;;21.25;21.25;;;;;7.75;72.65;101602.50;4427729;32;12510;-75
2020/12/29 12:42:05;;;;;;;;;30.75;30.75;;;;;7.72;72.83;101600.31;4432134;32;12336;-75
2020/12/29 12:45:00;;;;;;;;;32.50;32.50;;;;;7.74;73.03;101603.59;4431471;32;12988;-75
2020/12/29 12:47:56;;;;;;;;;33.00;33.00;;;;;7.59;73.50;101595.47;4432132;32;12314;-75
2020/12/29 12:50:23;;;;;;;;;38.00;35.00;;;;;7.62;73.65;101597.66;4433273;32;12337;-75
2020/12/29 12:52:51;;;;;;;;;36.50;35.75;;;;;7.65;73.43;101599.81;4433155;32;12361;-75
2020/12/29 12:55:47;;;;;;;;;22.75;22.75;;;;;7.76;73.04;101593.94;4429405;32;12326;-75
2020/12/29 12:58:14;;;;;;;;;31.25;29.50;;;;;7.52;73.66;101593.91;4430632;32;12331;-76